createdAt,value
2019-04-20T00:01:01.674Z,101361.02
2019-04-20T00:06:09.055Z,101358.84
2019-04-20T00:11:21.871Z,101359.26
2019-04-20T00:16:23.080Z,101355.22
2019-04-20T00:21:53.411Z,101356.14
2019-04-20T00:27:16.309Z,101354.23
2019-04-20T00:32:12.508Z,101353.45
2019-04-20T00:37:08.904Z,101351.18
2019-04-20T00:42:16.276Z,101353.59
2019-04-20T00:47:34.888Z,101347.05
2019-04-20T00:52:42.491Z,101350.48
2019-04-20T00:57:46.376Z,101352.17
2019-04-20T01:02:54.106Z,101345.77
2019-04-20T01:08:02.144Z,101348.27
2019-04-20T01:13:12.203Z,101347.38
2019-04-20T01:18:15.188Z,101349.20
2019-04-20T01:23:23.778Z,101350.24
2019-04-20T01:28:46.366Z,101343.42
2019-04-20T01:33:46.087Z,101349.38
2019-04-20T01:38:57.803Z,101348.09
2019-04-20T01:43:50.210Z,101351.73
2019-04-20T01:48:59.993Z,101352.92
2019-04-20T01:54:24.934Z,101350.95
2019-04-20T01:59:37.976Z,101354.82
2019-04-20T02:04:39.042Z,101356.58
2019-04-20T02:09:48.506Z,101347.73
2019-04-20T02:14:55.262Z,101354.31
2019-04-20T02:20:15.729Z,101356.78
2019-04-20T02:25:03.834Z,101342.45
2019-04-20T02:36:04.642Z,101337.56
2019-04-20T02:41:11.547Z,101339.59
2019-04-20T02:46:12.322Z,101336.08
2019-04-20T02:51:26.241Z,101336.08
2019-04-20T02:56:32.018Z,101327.70
2019-04-20T03:01:36.816Z,101332.03
2019-04-20T03:06:36.308Z,101326.64
2019-04-20T03:11:59.589Z,101321.54
2019-04-20T03:16:57.172Z,101322.48
2019-04-20T03:22:09.463Z,101322.00
2019-04-20T03:27:12.385Z,101323.11
2019-04-20T03:37:42.205Z,101321.45
2019-04-20T03:42:22.375Z,101331.86
2019-04-20T03:47:38.577Z,101327.29
2019-04-20T03:53:02.750Z,101322.75
2019-04-20T03:58:17.040Z,101322.62
2019-04-20T04:03:36.159Z,101323.48
2019-04-20T04:08:24.759Z,101319.52
2019-04-20T04:13:22.915Z,101321.37
2019-04-20T04:18:36.844Z,101308.86
2019-04-20T04:23:49.015Z,101328.02
2019-04-20T04:29:00.297Z,101325.67
2019-04-20T04:34:10.769Z,101331.10
2019-04-20T04:39:22.164Z,101333.52
2019-04-20T04:44:21.447Z,101328.25
2019-04-20T04:49:20.840Z,101326.58
2019-04-20T04:54:28.822Z,101330.66
2019-04-20T04:59:25.796Z,101324.41
2019-04-20T05:05:08.610Z,101322.02
2019-04-20T05:09:48.644Z,101329.93
2019-04-20T05:15:04.313Z,101339.05
2019-04-20T05:20:19.023Z,101342.39
2019-04-20T05:25:30.904Z,101344.77
2019-04-20T05:30:24.546Z,101348.22
2019-04-20T05:35:49.937Z,101342.48
2019-04-20T05:40:55.714Z,101348.95
2019-04-20T05:45:58.699Z,101350.95
2019-04-20T05:51:12.162Z,101357.56
2019-04-20T05:56:17.269Z,101364.80
2019-04-20T06:01:26.930Z,101361.14
2019-04-20T06:06:34.580Z,101364.41
2019-04-20T06:11:47.832Z,101374.22
2019-04-20T06:16:59.795Z,101372.89
2019-04-20T06:22:12.596Z,101367.25
2019-04-20T06:27:16.378Z,101369.20
2019-04-20T06:32:28.785Z,101377.63
2019-04-20T06:37:29.622Z,101382.52
2019-04-20T06:42:36.633Z,101385.37
2019-04-20T06:47:47.010Z,101385.79
2019-04-20T06:52:52.713Z,101386.89
2019-04-20T06:58:22.102Z,101381.80
2019-04-20T07:03:17.139Z,101387.13
2019-04-20T07:08:37.399Z,101370.70
2019-04-20T07:13:19.993Z,101378.45
2019-04-20T07:18:35.654Z,101379.97
2019-04-20T07:23:41.884Z,101375.84
2019-04-20T07:28:56.797Z,101372.94
2019-04-20T07:33:59.354Z,101372.64
2019-04-20T07:39:07.592Z,101374.14
2019-04-20T07:44:11.795Z,101369.01
2019-04-20T07:49:22.441Z,101373.06
2019-04-20T07:54:31.625Z,101365.64
2019-04-20T07:59:25.230Z,101358.56
2019-04-20T08:04:44.212Z,101362.45
2019-04-20T08:09:44.265Z,101355.72
2019-04-20T08:15:16.598Z,101361.39
2019-04-20T08:20:09.251Z,101349.31
2019-04-20T08:25:08.593Z,101355.57
2019-04-20T08:30:30.909Z,101354.16
2019-04-20T08:35:40.361Z,101356.94
2019-04-20T08:40:43.599Z,101355.77
2019-04-20T08:45:57.460Z,101352.73
2019-04-20T08:50:57.434Z,101346.30
2019-04-20T08:56:00.257Z,101350.95
2019-04-20T09:00:58.809Z,101356.05
2019-04-20T09:06:09.813Z,101354.95
2019-04-20T09:11:25.002Z,101352.86
2019-04-20T09:16:19.874Z,101355.36
2019-04-20T09:21:35.553Z,101354.71
2019-04-20T09:26:50.268Z,101347.98
2019-04-20T09:31:52.097Z,101342.77
2019-04-20T09:37:22.424Z,101347.43
2019-04-20T09:42:15.212Z,101339.89
2019-04-20T09:47:28.375Z,101339.31
2019-04-20T09:52:46.414Z,101340.64
2019-04-20T09:57:54.228Z,101343.31
2019-04-20T10:02:43.383Z,101348.35
2019-04-20T10:07:56.026Z,101339.54
2019-04-20T10:12:58.372Z,101343.31
2019-04-20T10:18:05.746Z,101328.52
2019-04-20T10:23:12.472Z,101337.56
2019-04-20T10:28:19.422Z,101329.88
2019-04-20T10:33:25.791Z,101335.53
2019-04-20T10:38:34.294Z,101340.95
2019-04-20T10:43:40.756Z,101347.22
2019-04-20T10:48:51.670Z,101341.92
2019-04-20T10:53:56.203Z,101340.02
2019-04-20T10:59:01.539Z,101342.13
2019-04-20T11:04:08.361Z,101332.87
2019-04-20T11:09:14.324Z,101337.28
2019-04-20T11:14:26.606Z,101338.87
2019-04-20T11:19:27.439Z,101333.35
2019-04-20T11:24:34.363Z,101325.37
2019-04-20T11:29:40.240Z,101320.88
2019-04-20T11:34:47.032Z,101310.16
2019-04-20T11:39:52.917Z,101314.41
2019-04-20T11:44:58.402Z,101317.05
2019-04-20T11:50:03.839Z,101318.21
2019-04-20T11:55:10.535Z,101318.55
2019-04-20T12:00:19.200Z,101320.75
2019-04-20T12:05:32.411Z,101314.52
2019-04-20T12:10:33.135Z,101316.06
2019-04-20T12:15:39.550Z,101318.03
2019-04-20T12:20:44.999Z,101313.91
2019-04-20T12:25:50.406Z,101314.34
2019-04-20T12:31:03.042Z,101307.15
2019-04-20T12:36:03.243Z,101299.94
2019-04-20T12:41:11.031Z,101294.92
2019-04-20T12:46:18.328Z,101294.20
2019-04-20T12:51:30.382Z,101292.38
2019-04-20T12:56:30.647Z,101291.75
2019-04-20T13:01:37.315Z,101292.48
2019-04-20T13:06:44.676Z,101286.59
2019-04-20T13:12:04.430Z,101280.23
2019-04-20T13:17:06.309Z,101275.41
2019-04-20T13:22:12.965Z,101267.00
2019-04-20T13:27:18.698Z,101266.41
2019-04-20T13:32:25.576Z,101269.55
2019-04-20T13:37:31.867Z,101264.17
2019-04-20T13:42:38.175Z,101259.63
2019-04-20T13:47:43.571Z,101249.17
2019-04-20T13:52:49.373Z,101247.97
2019-04-20T13:58:00.334Z,101249.08
2019-04-20T14:03:08.971Z,101245.66
2019-04-20T14:08:21.130Z,101244.50
2019-04-20T14:13:36.556Z,101239.17
2019-04-20T14:18:33.706Z,101233.43
2019-04-20T14:23:39.143Z,101229.56
2019-04-20T14:28:45.128Z,101234.21
2019-04-20T14:33:50.914Z,101225.81
2019-04-20T14:38:56.146Z,101230.08
2019-04-20T14:44:01.642Z,101227.25
2019-04-20T14:49:07.079Z,101211.55
2019-04-20T14:54:13.775Z,101197.64
2019-04-20T14:59:25.323Z,101197.64
2019-04-20T15:04:32.044Z,101196.02
2019-04-20T15:09:39.374Z,101186.81
2019-04-20T15:14:44.995Z,101183.48
2019-04-20T15:20:03.645Z,101180.56
2019-04-20T15:25:09.637Z,101177.14
2019-04-20T15:30:16.228Z,101177.67
2019-04-20T15:35:23.355Z,101175.23
2019-04-20T15:40:29.033Z,101169.17
2019-04-20T15:45:34.296Z,101166.26
2019-04-20T15:50:41.360Z,101167.22
2019-04-20T15:55:48.747Z,101159.55
2019-04-20T16:00:54.636Z,101155.92
2019-04-20T16:06:03.257Z,101151.68
2019-04-20T16:11:11.427Z,101156.70
2019-04-20T16:16:16.976Z,101157.06
2019-04-20T16:21:26.068Z,101151.66
2019-04-20T16:26:35.589Z,101150.41
2019-04-20T16:31:43.934Z,101141.55
2019-04-20T16:36:50.132Z,101142.48
2019-04-20T16:41:56.178Z,101144.82
2019-04-20T16:47:01.616Z,101136.33
2019-04-20T16:52:07.403Z,101134.41
2019-04-20T16:57:14.211Z,101125.22
2019-04-20T17:02:21.172Z,101119.62
2019-04-20T17:07:39.414Z,101122.55
2019-04-20T17:12:46.050Z,101120.00
2019-04-20T17:17:53.156Z,101118.26
2019-04-20T17:22:58.537Z,101121.25
2019-04-20T17:28:24.801Z,101115.44
2019-04-20T17:33:47.499Z,101115.63
2019-04-20T17:38:48.474Z,101110.09
2019-04-20T17:44:11.655Z,101112.55
2019-04-20T17:49:13.617Z,101111.47
2019-04-20T17:54:23.495Z,101104.72
2019-04-20T17:59:30.288Z,101099.70
2019-04-20T18:05:06.570Z,101086.53
2019-04-20T18:10:14.301Z,101089.55
2019-04-20T18:15:21.241Z,101084.13
2019-04-20T18:20:14.961Z,101086.56
2019-04-20T18:25:53.373Z,101087.52
2019-04-20T18:30:43.662Z,101092.52
2019-04-20T18:35:46.020Z,101075.70
2019-04-20T18:40:55.715Z,101085.96
2019-04-20T18:46:15.104Z,101083.85
2019-04-20T18:51:03.921Z,101082.69
2019-04-20T18:56:09.620Z,101079.97
2019-04-20T19:01:15.275Z,101092.31
2019-04-20T19:06:21.775Z,101095.05
2019-04-20T19:11:28.581Z,101087.97
2019-04-20T19:16:52.884Z,101089.44
2019-04-20T19:21:45.957Z,101081.80
2019-04-20T19:26:58.347Z,101089.65
2019-04-20T19:32:17.563Z,101088.74
2019-04-20T19:37:15.689Z,101084.27
2019-04-20T19:42:29.795Z,101088.03
2019-04-20T19:47:38.350Z,101085.28
2019-04-20T19:52:51.562Z,101093.59
2019-04-20T19:57:51.247Z,101101.16
2019-04-20T20:02:41.514Z,101100.69
2019-04-20T20:07:52.525Z,101104.68
2019-04-20T20:12:58.986Z,101099.90
2019-04-20T20:18:19.395Z,101098.50
2019-04-20T20:23:10.046Z,101089.11
2019-04-20T20:28:27.088Z,101082.81
2019-04-20T20:33:39.505Z,101089.57
2019-04-20T20:38:36.933Z,101094.41
2019-04-20T20:43:49.626Z,101082.27
2019-04-20T20:49:06.293Z,101077.80
2019-04-20T20:54:03.318Z,101072.75
2019-04-20T20:59:07.530Z,101071.86
2019-04-20T21:04:06.901Z,101070.64
2019-04-20T21:09:12.570Z,101065.33
2019-04-20T21:14:23.779Z,101060.02
2019-04-20T21:19:45.342Z,101062.41
2019-04-20T21:24:38.026Z,101051.83
2019-04-20T21:29:49.293Z,101058.70
2019-04-20T21:34:55.618Z,101061.45
2019-04-20T21:40:01.481Z,101051.98
2019-04-20T21:45:10.293Z,101043.67
2019-04-20T21:50:31.214Z,101044.46
2019-04-20T21:55:19.336Z,101039.86
2019-04-20T22:00:40.843Z,101033.34
2019-04-20T22:05:42.315Z,101030.05
2019-04-20T22:10:50.038Z,101016.66
2019-04-20T22:16:01.428Z,101016.66
2019-04-20T22:21:11.182Z,101017.50
2019-04-20T22:26:20.754Z,101011.11
2019-04-20T22:31:16.374Z,101008.70
2019-04-20T22:36:25.939Z,101001.85
2019-04-20T22:41:30.064Z,100997.13
2019-04-20T22:46:37.575Z,100990.76
2019-04-20T22:51:53.184Z,100994.68
2019-04-20T22:57:01.069Z,100989.98
2019-04-20T23:02:00.327Z,100986.56
2019-04-20T23:07:03.229Z,100977.78
2019-04-20T23:12:12.223Z,100974.31
2019-04-20T23:17:18.465Z,100971.81
2019-04-20T23:22:23.084Z,100970.26
2019-04-20T23:27:31.602Z,100964.70
2019-04-20T23:32:35.873Z,100956.84
2019-04-20T23:37:42.290Z,100955.65
2019-04-20T23:42:53.715Z,100951.78
2019-04-20T23:48:05.394Z,100950.06
2019-04-20T23:53:29.828Z,100947.22
2019-04-20T23:58:19.478Z,100935.91
